This is the latest recevied weather packets stored in our database for station/object KF7PIZ. If no packets are shown the sender has not sent any weather packets the latest 1 day(s).
| Time | Temp. | Humidity | Pressure | Rain* | Wind** | Luminosity | Snow |
|---|---|---|---|---|---|---|---|
| 1778021085 | 21.11° C | 43% | 1012.9 hPa | 0 mm | 0 m/s | 95 W/m² | - |
| 1778020782 | 21.11° C | 45% | 1012.9 hPa | 0 mm | 0 m/s | 73 W/m² | - |
| 1778020479 | 20.56° C | 44% | 1013.1 hPa | 0 mm | 0 m/s | 89 W/m² | - |
| 1778020175 | 20° C | 46% | 1013 hPa | 0 mm | 0 m/s | 338 W/m² | - |
| 1778019872 | 20° C | 48% | 1013.2 hPa | 0 mm | 0 m/s | 319 W/m² | - |
| 1778019567 | 20° C | 46% | 1013.2 hPa | 0 mm | 0 m/s | 70 W/m² | - |
| 1778019265 | 20° C | 42% | 1013 hPa | 0 mm | 0 m/s | 85 W/m² | - |
| 1778018962 | 21.11° C | 44% | 1013.6 hPa | 0 mm | 0 m/s | 69 W/m² | - |
| 1778018659 | 21.11° C | 45% | 1013.3 hPa | 0 mm | 0 m/s | 127 W/m² | - |
| 1778018356 | 20.56° C | 42% | 1013.4 hPa | 0 mm | 0 m/s | 188 W/m² | - |
| 1778018054 | 21.67° C | 42% | 1013.6 hPa | 0 mm | 0 m/s | 174 W/m² | - |
| 1778017752 | 21.11° C | 46% | 1013.7 hPa | 0 mm | 0 m/s | 498 W/m² | - |
| 1778017449 | 20° C | 43% | 1014 hPa | 0 mm | 0 m/s | 177 W/m² | - |
| 1778017147 | 20° C | 47% | 1013.9 hPa | 0 mm | 0.45 m/s, 203° | 247 W/m² | - |
| 1778016844 | 20.56° C | 43% | 1013.7 hPa | 0 mm | 0 m/s | 95 W/m² | - |
| 1778016540 | 20° C | 47% | 1013.7 hPa | 0 mm | 0 m/s | 654 W/m² | - |
| 1778016237 | 19.44° C | 45% | 1013.7 hPa | 0 mm | 0 m/s | 776 W/m² | - |
| 1778015934 | 18.89° C | 48% | 1014.1 hPa | 0 mm | 0 m/s | 821 W/m² | - |
| 1778015631 | 19.44° C | 47% | 1014.2 hPa | 0 mm | 0 m/s | 149 W/m² | - |
| 1778015327 | 20° C | 47% | 1014.1 hPa | 0 mm | 0 m/s | 121 W/m² | - |
| 1778015024 | 20° C | 50% | 1014.2 hPa | 0 mm | 0 m/s | 161 W/m² | - |
| 1778014721 | 18.89° C | 48% | 1014.1 hPa | 0 mm | 0 m/s | 173 W/m² | - |
| 1778014420 | 18.89° C | 49% | 1014.1 hPa | 0 mm | 0 m/s | 825 W/m² | - |
| 1778014116 | 20° C | 46% | 1014.2 hPa | 0 mm | 0 m/s | 128 W/m² | - |
| 1778013814 | 20° C | 52% | 1014.4 hPa | 0 mm | 0 m/s | 314 W/m² | - |
* Rain latest hour (hover to see other rain measurements)
** Current wind speed in m/s (hover to see current wind gust speed)